createdAt,value
2019-03-18T00:00:35.987Z,4.30
2019-03-18T00:04:41.018Z,4.53
2019-03-18T00:08:45.991Z,5.63
2019-03-18T00:12:52.125Z,7.83
2019-03-18T00:16:57.388Z,5.57
2019-03-18T00:21:02.377Z,6.23
2019-03-18T00:25:10.214Z,5.67
2019-03-18T00:29:15.169Z,6.50
2019-03-18T00:33:20.162Z,6.83
2019-03-18T00:37:25.159Z,4.57
2019-03-18T00:41:30.143Z,5.47
2019-03-18T00:45:35.149Z,4.33
2019-03-18T00:49:40.126Z,5.87
2019-03-18T00:53:45.098Z,5.33
2019-03-18T00:57:50.085Z,3.93
2019-03-18T01:01:55.062Z,4.13
2019-03-18T01:06:00.078Z,4.43
2019-03-18T01:10:08.251Z,6.73
2019-03-18T01:14:13.214Z,5.30
2019-03-18T01:18:18.202Z,4.63
2019-03-18T01:22:23.196Z,6.63
2019-03-18T01:26:28.182Z,6.17
2019-03-18T01:30:33.181Z,5.33
2019-03-18T01:34:38.165Z,5.93
2019-03-18T01:38:43.154Z,5.10
2019-03-18T01:42:48.142Z,4.57
2019-03-18T01:46:53.166Z,4.37
2019-03-18T01:50:58.155Z,4.47
2019-03-18T01:55:03.599Z,2.80
2019-03-18T01:59:08.594Z,5.37
2019-03-18T02:03:13.603Z,3.17
2019-03-18T02:07:18.683Z,5.37
2019-03-18T02:11:23.690Z,3.30
2019-03-18T02:15:28.686Z,4.03
2019-03-18T02:19:33.654Z,3.87
2019-03-18T02:23:38.654Z,2.80
2019-03-18T02:27:43.693Z,3.90
2019-03-18T02:31:48.675Z,4.97
2019-03-18T02:35:53.671Z,3.03
2019-03-18T02:39:58.732Z,3.80
2019-03-18T02:44:03.715Z,4.63
2019-03-18T02:48:08.700Z,5.50
2019-03-18T02:52:13.751Z,3.80
2019-03-18T02:56:18.757Z,4.73
2019-03-18T03:00:23.729Z,4.10
2019-03-18T03:04:28.690Z,5.67
2019-03-18T03:08:33.729Z,4.47
2019-03-18T03:12:38.991Z,3.90
2019-03-18T03:16:43.981Z,4.47
2019-03-18T03:20:49.106Z,4.23
2019-03-18T03:24:54.093Z,5.07
2019-03-18T03:28:59.070Z,4.13
2019-03-18T03:33:04.115Z,6.77
2019-03-18T03:37:09.087Z,3.23
2019-03-18T03:41:17.657Z,6.83
2019-03-18T03:45:20.706Z,6.03
2019-03-18T03:49:25.787Z,4.93
2019-03-18T03:53:31.196Z,5.93
2019-03-18T03:57:36.402Z,6.43
2019-03-18T04:01:41.600Z,6.07
2019-03-18T04:05:46.606Z,3.73
2019-03-18T04:09:51.590Z,2.60
2019-03-18T04:13:56.588Z,5.63
2019-03-18T04:18:01.580Z,5.60
2019-03-18T04:22:06.723Z,5.90
2019-03-18T04:26:12.747Z,7.03
2019-03-18T04:30:17.742Z,4.90
2019-03-18T04:34:22.775Z,7.83
2019-03-18T04:38:27.777Z,7.17
2019-03-18T04:42:32.758Z,4.80
2019-03-18T04:46:37.742Z,3.10
2019-03-18T04:50:42.705Z,7.23
2019-03-18T04:54:47.697Z,7.53
2019-03-18T04:58:53.646Z,6.10
2019-03-18T05:02:58.677Z,9.90
2019-03-18T05:07:03.669Z,5.87
2019-03-18T05:11:08.637Z,6.03
2019-03-18T05:15:13.810Z,6.17
2019-03-18T05:19:18.810Z,7.70
2019-03-18T05:23:23.798Z,8.07
2019-03-18T05:27:28.781Z,10.30
2019-03-18T05:31:33.751Z,7.63
2019-03-18T05:35:38.743Z,7.37
2019-03-18T05:39:43.775Z,10.57
2019-03-18T05:43:48.818Z,11.13
2019-03-18T05:47:56.809Z,12.40
2019-03-18T05:52:01.802Z,8.90
2019-03-18T05:56:06.764Z,13.20
2019-03-18T06:00:13.221Z,8.30
2019-03-18T06:08:35.689Z,8.77
2019-03-18T06:12:40.755Z,8.53
2019-03-18T06:16:45.725Z,10.17
2019-03-18T06:20:50.719Z,11.13
2019-03-18T06:24:55.705Z,8.70
2019-03-18T06:29:00.730Z,7.37
2019-03-18T06:33:05.670Z,9.13
2019-03-18T06:37:10.645Z,10.23
2019-03-18T06:41:16.754Z,12.73
2019-03-18T06:45:22.034Z,9.87
2019-03-18T06:49:27.293Z,9.03
2019-03-18T06:53:32.562Z,8.30
2019-03-18T06:57:37.924Z,9.10
2019-03-18T07:01:44.208Z,7.77
2019-03-18T07:05:49.475Z,6.47
2019-03-18T07:09:54.741Z,6.57
2019-03-18T07:14:00.010Z,9.63
2019-03-18T07:18:17.708Z,9.37
2019-03-18T07:22:12.235Z,6.33
2019-03-18T07:26:17.510Z,9.50
2019-03-18T07:30:22.786Z,7.83
2019-03-18T07:34:28.061Z,12.07
2019-03-18T07:38:33.331Z,8.27
2019-03-18T07:42:38.574Z,8.93
2019-03-18T07:46:43.841Z,6.60
2019-03-18T07:50:49.109Z,4.57
2019-03-18T07:54:54.369Z,4.80
2019-03-18T07:58:59.667Z,9.90
2019-03-18T08:03:04.927Z,9.07
2019-03-18T08:07:10.186Z,9.20
2019-03-18T08:11:15.454Z,8.93
2019-03-18T08:15:20.718Z,5.00
2019-03-18T08:19:25.981Z,5.73
2019-03-18T08:23:31.259Z,5.87
2019-03-18T08:27:36.549Z,5.17
2019-03-18T08:31:41.821Z,8.63
2019-03-18T08:35:47.086Z,4.97
2019-03-18T08:39:52.377Z,6.07
2019-03-18T08:43:57.795Z,6.00
2019-03-18T08:48:03.070Z,4.23
2019-03-18T08:52:08.441Z,5.70
2019-03-18T08:56:13.697Z,5.10
2019-03-18T09:00:19.051Z,6.63
2019-03-18T09:04:24.460Z,8.13
2019-03-18T09:08:29.828Z,7.30
2019-03-18T09:12:35.090Z,6.50
2019-03-18T09:16:40.418Z,5.33
2019-03-18T09:20:45.686Z,10.00
2019-03-18T09:24:50.945Z,4.43
2019-03-18T09:28:56.222Z,8.60
2019-03-18T09:33:01.474Z,7.53
2019-03-18T09:37:06.719Z,8.17
2019-03-18T09:41:11.984Z,6.47
2019-03-18T09:45:18.206Z,6.67
2019-03-18T09:49:23.546Z,7.03
2019-03-18T09:53:28.788Z,6.43
2019-03-18T09:57:34.062Z,8.83
2019-03-18T10:01:39.340Z,6.63
2019-03-18T10:05:44.708Z,6.37
2019-03-18T10:09:49.976Z,5.20
2019-03-18T10:13:55.220Z,6.17
2019-03-18T10:18:00.487Z,8.93
2019-03-18T10:22:05.765Z,5.03
2019-03-18T10:26:11.048Z,6.33
2019-03-18T10:30:16.581Z,7.23
2019-03-18T10:34:21.879Z,4.43
2019-03-18T10:38:27.091Z,2.70
2019-03-18T10:42:32.358Z,5.57
2019-03-18T10:46:37.626Z,7.23
2019-03-18T10:50:42.910Z,5.63
2019-03-18T10:54:48.178Z,4.93
2019-03-18T10:58:53.439Z,5.07
2019-03-18T11:02:58.709Z,6.37
2019-03-18T11:07:03.994Z,4.20
2019-03-18T11:11:09.262Z,5.17
2019-03-18T11:15:21.698Z,5.80
2019-03-18T11:19:26.942Z,6.27
2019-03-18T11:23:32.223Z,3.10
2019-03-18T11:27:37.693Z,2.60
2019-03-18T11:31:42.975Z,6.63
2019-03-18T11:35:48.322Z,7.97
2019-03-18T11:39:53.582Z,6.53
2019-03-18T11:43:58.933Z,7.13
2019-03-18T11:48:04.263Z,2.70
2019-03-18T11:52:09.522Z,3.80
2019-03-18T11:56:15.089Z,6.30
2019-03-18T12:00:21.605Z,6.47
2019-03-18T12:04:26.849Z,9.33
2019-03-18T12:08:32.102Z,4.23
2019-03-18T12:12:37.374Z,6.43
2019-03-18T12:16:42.655Z,2.20
2019-03-18T12:20:47.925Z,6.23
2019-03-18T12:24:53.191Z,3.33
2019-03-18T12:28:58.446Z,2.73
2019-03-18T12:33:03.989Z,5.07
2019-03-18T12:37:09.254Z,2.90
2019-03-18T12:41:14.549Z,4.50
2019-03-18T12:45:20.990Z,7.57
2019-03-18T12:49:26.225Z,6.37
2019-03-18T12:53:31.582Z,6.00
2019-03-18T12:57:36.872Z,5.57
2019-03-18T13:01:42.147Z,6.43
2019-03-18T13:05:47.414Z,15.33
2019-03-18T13:09:52.668Z,4.17
2019-03-18T13:13:57.945Z,5.70
2019-03-18T13:18:03.238Z,4.10
2019-03-18T13:22:08.503Z,3.20
2019-03-18T13:26:13.781Z,2.53
2019-03-18T13:30:20.284Z,2.17
2019-03-18T13:34:25.569Z,4.57
2019-03-18T13:38:30.848Z,3.83
2019-03-18T13:42:36.102Z,4.63
2019-03-18T13:46:41.465Z,8.73
2019-03-18T13:50:46.723Z,5.23
2019-03-18T13:54:51.697Z,6.70
2019-03-18T13:58:57.654Z,7.83
2019-03-18T14:03:02.638Z,12.50
2019-03-18T14:07:07.617Z,8.00
2019-03-18T14:11:12.607Z,6.73
2019-03-18T14:15:18.908Z,7.17
2019-03-18T14:19:23.974Z,9.27
2019-03-18T14:23:28.953Z,7.00
2019-03-18T14:27:34.226Z,6.40
2019-03-18T14:31:39.214Z,8.40
2019-03-18T14:35:44.186Z,5.77
2019-03-18T14:39:49.194Z,7.07
2019-03-18T14:43:54.187Z,5.23
2019-03-18T14:47:59.160Z,8.23
2019-03-18T14:52:04.152Z,5.37
2019-03-18T14:56:09.121Z,8.87
2019-03-18T15:00:24.431Z,7.80
2019-03-18T15:04:29.421Z,7.23
2019-03-18T15:08:34.438Z,6.50
2019-03-18T15:12:39.500Z,4.33
2019-03-18T15:16:45.522Z,7.33
2019-03-18T15:20:50.519Z,9.93
2019-03-18T15:24:55.494Z,5.63
2019-03-18T15:29:01.549Z,8.00
2019-03-18T15:33:06.526Z,9.87
2019-03-18T15:37:11.581Z,7.83
2019-03-18T15:41:16.570Z,12.20
2019-03-18T15:45:22.649Z,8.90
2019-03-18T15:49:27.913Z,12.60
2019-03-18T15:53:32.973Z,9.40
2019-03-18T15:57:37.982Z,6.73
2019-03-18T16:01:44.817Z,8.17
2019-03-18T16:05:49.600Z,9.43
2019-03-18T16:09:54.670Z,9.33
2019-03-18T16:13:59.677Z,10.23
2019-03-18T16:18:04.685Z,6.67
2019-03-18T16:22:09.767Z,5.63
2019-03-18T16:26:15.009Z,5.17
2019-03-18T16:30:21.906Z,2.80
2019-03-18T16:34:26.957Z,3.93
2019-03-18T16:38:31.942Z,7.73
2019-03-18T16:42:36.979Z,4.87
2019-03-18T16:46:42.982Z,7.17
2019-03-18T16:50:48.225Z,5.67
2019-03-18T16:54:53.926Z,7.37
2019-03-18T16:58:59.512Z,6.60
2019-03-18T17:03:05.218Z,5.77
2019-03-18T17:07:10.424Z,5.13
2019-03-18T17:11:15.836Z,7.63
2019-03-18T17:15:22.157Z,5.37
2019-03-18T17:19:28.839Z,4.40
2019-03-18T17:23:34.673Z,8.73
2019-03-18T17:27:40.616Z,8.73
2019-03-18T17:31:45.999Z,10.03
2019-03-18T17:35:51.830Z,9.00
2019-03-18T17:39:57.424Z,10.43
2019-03-18T17:44:03.478Z,13.50
2019-03-18T17:48:09.503Z,15.93
2019-03-18T17:52:14.959Z,13.83
2019-03-18T17:56:29.805Z,12.60
2019-03-18T18:00:32.826Z,13.30
2019-03-18T18:04:38.707Z,14.97
2019-03-18T18:08:43.997Z,13.70
2019-03-18T18:12:48.998Z,10.40
2019-03-18T18:16:54.165Z,10.83
2019-03-18T18:20:59.093Z,9.13
2019-03-18T18:25:08.241Z,10.53
2019-03-18T18:29:13.241Z,13.60
2019-03-18T18:33:18.245Z,11.50
2019-03-18T18:37:23.249Z,11.87
2019-03-18T18:41:28.270Z,11.47
2019-03-18T18:45:33.271Z,12.60
2019-03-18T18:49:38.271Z,12.93
2019-03-18T18:53:43.262Z,12.50
2019-03-18T18:57:49.326Z,11.80
2019-03-18T19:01:54.338Z,16.13
2019-03-18T19:05:59.305Z,10.50
2019-03-18T19:10:06.638Z,11.73
2019-03-18T19:14:11.706Z,13.60
2019-03-18T19:18:16.702Z,12.23
2019-03-18T19:22:21.714Z,10.23
2019-03-18T19:26:26.702Z,15.30
2019-03-18T19:30:31.750Z,11.53
2019-03-18T19:34:36.849Z,12.47
2019-03-18T19:38:41.951Z,13.47
2019-03-18T19:42:47.075Z,16.07
2019-03-18T19:46:52.214Z,13.63
2019-03-18T19:50:57.360Z,16.53
2019-03-18T19:55:02.370Z,16.77
2019-03-18T19:59:07.429Z,14.27
2019-03-18T20:03:12.516Z,15.17
2019-03-18T20:07:17.650Z,17.57
2019-03-18T20:11:22.647Z,14.87
2019-03-18T20:15:27.669Z,11.23
2019-03-18T20:19:32.658Z,14.33
2019-03-18T20:23:37.966Z,11.37
2019-03-18T20:27:43.409Z,13.80
2019-03-18T20:31:48.610Z,13.03
2019-03-18T20:35:53.582Z,15.70
2019-03-18T20:39:59.538Z,9.73
2019-03-18T20:44:04.711Z,15.10
2019-03-18T20:48:09.704Z,11.27
2019-03-18T20:52:17.053Z,30.73
2019-03-18T20:56:21.477Z,12.90
2019-03-18T21:00:26.578Z,12.37
2019-03-18T21:04:31.741Z,16.20
2019-03-18T21:08:36.744Z,9.97
2019-03-18T21:12:41.718Z,11.47
2019-03-18T21:16:46.705Z,10.43
2019-03-18T21:20:51.718Z,12.73
2019-03-18T21:24:56.762Z,13.77
2019-03-18T21:29:01.750Z,14.30
2019-03-18T21:33:06.760Z,12.23
2019-03-18T21:37:12.889Z,15.87
2019-03-18T21:41:17.886Z,10.33
2019-03-18T21:45:24.082Z,15.03
2019-03-18T21:49:29.161Z,14.53
2019-03-18T21:53:34.274Z,17.17
2019-03-18T21:57:39.333Z,11.90
2019-03-18T22:01:44.493Z,20.53
2019-03-18T22:05:49.489Z,16.17
2019-03-18T22:09:54.490Z,15.03
2019-03-18T22:13:59.573Z,13.17
2019-03-18T22:18:04.694Z,12.90
2019-03-18T22:22:09.737Z,14.53
2019-03-18T22:26:14.749Z,20.83
2019-03-18T22:30:19.978Z,15.63
2019-03-18T22:34:25.002Z,12.33
2019-03-18T22:38:29.993Z,13.40
2019-03-18T22:42:35.098Z,14.23
2019-03-18T22:46:40.118Z,12.57
2019-03-18T22:50:45.119Z,16.80
2019-03-18T22:54:55.893Z,14.60
2019-03-18T22:58:56.721Z,11.43
2019-03-18T23:03:01.724Z,15.30
2019-03-18T23:07:06.714Z,18.27
2019-03-18T23:11:12.865Z,14.73
2019-03-18T23:15:17.851Z,13.33
2019-03-18T23:19:22.823Z,13.10
2019-03-18T23:23:27.840Z,14.10
2019-03-18T23:27:32.811Z,15.17
2019-03-18T23:31:37.814Z,17.03
2019-03-18T23:35:42.837Z,18.83
2019-03-18T23:39:47.809Z,17.63
2019-03-18T23:43:52.874Z,17.60
2019-03-18T23:47:57.942Z,19.20
2019-03-18T23:52:02.940Z,18.70
2019-03-18T23:56:08.058Z,17.60
